sensor_id;sensor_type;location;lat;lon;timestamp;pressure;altitude;pressure_sealevel;temperature;humidity
37892;BME280;45797;47.466;9.486;2022-10-28T00:03:00;96711.75;;;15.08;70.41
37892;BME280;45797;47.466;9.486;2022-10-28T00:08:02;96709.56;;;15.02;70.65
37892;BME280;45797;47.466;9.486;2022-10-28T00:13:02;96717.81;;;14.98;70.74
37892;BME280;45797;47.466;9.486;2022-10-28T00:18:01;96719.00;;;14.94;70.92
37892;BME280;45797;47.466;9.486;2022-10-28T00:23:02;96706.63;;;14.94;70.51
37892;BME280;45797;47.466;9.486;2022-10-28T00:28:09;96713.72;;;14.94;70.68
37892;BME280;45797;47.466;9.486;2022-10-28T00:33:09;96716.78;;;14.88;70.96
37892;BME280;45797;47.466;9.486;2022-10-28T00:38:10;96721.16;;;14.89;70.84
37892;BME280;45797;47.466;9.486;2022-10-28T00:43:12;96722.81;;;14.90;70.98
37892;BME280;45797;47.466;9.486;2022-10-28T00:48:13;96711.63;;;14.86;71.70
37892;BME280;45797;47.466;9.486;2022-10-28T00:53:15;96711.63;;;14.86;71.28
37892;BME280;45797;47.466;9.486;2022-10-28T00:58:26;96705.16;;;14.79;71.42
37892;BME280;45797;47.466;9.486;2022-10-28T01:03:27;96695.66;;;14.76;71.54
37892;BME280;45797;47.466;9.486;2022-10-28T01:08:27;96674.91;;;14.72;71.70
37892;BME280;45797;47.466;9.486;2022-10-28T01:13:32;96669.75;;;14.70;71.61
37892;BME280;45797;47.466;9.486;2022-10-28T01:19:20;96671.56;;;14.70;71.14
37892;BME280;45797;47.466;9.486;2022-10-28T01:35:52;96683.66;;;14.72;71.56
37892;BME280;45797;47.466;9.486;2022-10-28T01:46:20;96692.75;;;14.68;71.82
37892;BME280;45797;47.466;9.486;2022-10-28T01:51:40;96684.94;;;14.67;71.84
37892;BME280;45797;47.466;9.486;2022-10-28T01:56:53;96690.47;;;14.64;71.95
37892;BME280;45797;47.466;9.486;2022-10-28T02:01:55;96695.97;;;14.61;72.19
37892;BME280;45797;47.466;9.486;2022-10-28T02:06:58;96693.66;;;14.56;72.38
37892;BME280;45797;47.466;9.486;2022-10-28T02:17:34;96688.31;;;14.45;72.39
37892;BME280;45797;47.466;9.486;2022-10-28T02:23:42;96685.91;;;14.42;72.66
37892;BME280;45797;47.466;9.486;2022-10-28T02:33:59;96672.72;;;14.42;72.75
37892;BME280;45797;47.466;9.486;2022-10-28T02:39:14;96672.19;;;14.37;72.66
37892;BME280;45797;47.466;9.486;2022-10-28T02:44:28;96672.53;;;14.32;72.71
37892;BME280;45797;47.466;9.486;2022-10-28T02:49:31;96668.44;;;14.28;73.12
37892;BME280;45797;47.466;9.486;2022-10-28T02:54:49;96672.38;;;14.22;72.93
37892;BME280;45797;47.466;9.486;2022-10-28T03:00:08;96679.88;;;14.16;72.95
37892;BME280;45797;47.466;9.486;2022-10-28T03:05:18;96680.09;;;14.13;73.18
37892;BME280;45797;47.466;9.486;2022-10-28T03:10:20;96682.22;;;14.08;73.90
37892;BME280;45797;47.466;9.486;2022-10-28T03:15:29;96678.72;;;14.07;73.36
37892;BME280;45797;47.466;9.486;2022-10-28T03:20:37;96675.25;;;14.07;73.45
37892;BME280;45797;47.466;9.486;2022-10-28T03:25:38;96696.34;;;14.07;73.38
37892;BME280;45797;47.466;9.486;2022-10-28T03:30:37;96701.00;;;14.03;73.61
37892;BME280;45797;47.466;9.486;2022-10-28T03:35:38;96692.31;;;14.01;73.55
37892;BME280;45797;47.466;9.486;2022-10-28T03:40:39;96688.84;;;14.00;73.68
37892;BME280;45797;47.466;9.486;2022-10-28T03:45:39;96694.97;;;14.01;73.28
37892;BME280;45797;47.466;9.486;2022-10-28T03:50:54;96692.66;;;13.96;73.87
37892;BME280;45797;47.466;9.486;2022-10-28T03:56:04;96694.34;;;13.97;73.53
37892;BME280;45797;47.466;9.486;2022-10-28T04:01:05;96699.50;;;13.99;73.60
37892;BME280;45797;47.466;9.486;2022-10-28T04:06:05;96706.56;;;13.98;73.72
37892;BME280;45797;47.466;9.486;2022-10-28T04:11:04;96699.50;;;13.99;73.48
37892;BME280;45797;47.466;9.486;2022-10-28T04:16:13;96686.22;;;14.00;73.22
37892;BME280;45797;47.466;9.486;2022-10-28T04:21:15;96689.63;;;14.03;73.27
37892;BME280;45797;47.466;9.486;2022-10-28T04:26:17;96684.13;;;14.06;72.53
37892;BME280;45797;47.466;9.486;2022-10-28T04:31:18;96678.84;;;14.06;73.14
37892;BME280;45797;47.466;9.486;2022-10-28T04:36:19;96679.69;;;14.06;73.25
37892;BME280;45797;47.466;9.486;2022-10-28T04:41:19;96674.19;;;14.09;73.19
37892;BME280;45797;47.466;9.486;2022-10-28T04:46:21;96679.25;;;14.12;72.82
37892;BME280;45797;47.466;9.486;2022-10-28T04:51:22;96686.09;;;14.15;72.80
37892;BME280;45797;47.466;9.486;2022-10-28T04:56:29;96678.19;;;14.15;72.73
37892;BME280;45797;47.466;9.486;2022-10-28T05:01:31;96664.91;;;14.16;72.49
37892;BME280;45797;47.466;9.486;2022-10-28T05:06:33;96661.81;;;14.22;72.67
37892;BME280;45797;47.466;9.486;2022-10-28T05:11:33;96674.06;;;14.23;72.42
37892;BME280;45797;47.466;9.486;2022-10-28T05:16:58;96674.78;;;14.25;72.65
37892;BME280;45797;47.466;9.486;2022-10-28T05:21:58;96666.44;;;14.32;72.76
37892;BME280;45797;47.466;9.486;2022-10-28T05:26:58;96667.03;;;14.35;72.44
37892;BME280;45797;47.466;9.486;2022-10-28T05:32:03;96665.75;;;14.41;72.17
37892;BME280;45797;47.466;9.486;2022-10-28T05:37:03;96662.28;;;14.40;72.71
37892;BME280;45797;47.466;9.486;2022-10-28T05:42:03;96659.31;;;14.45;72.25
37892;BME280;45797;47.466;9.486;2022-10-28T05:47:13;96672.28;;;14.48;71.99
37892;BME280;45797;47.466;9.486;2022-10-28T05:52:19;96674.72;;;14.51;72.09
37892;BME280;45797;47.466;9.486;2022-10-28T05:57:19;96679.03;;;14.52;71.95
37892;BME280;45797;47.466;9.486;2022-10-28T06:02:20;96686.09;;;14.51;72.43
37892;BME280;45797;47.466;9.486;2022-10-28T06:07:29;96686.81;;;14.53;72.09
37892;BME280;45797;47.466;9.486;2022-10-28T06:12:30;96688.25;;;14.57;72.53
37892;BME280;45797;47.466;9.486;2022-10-28T06:17:30;96679.19;;;14.62;72.35
37892;BME280;45797;47.466;9.486;2022-10-28T06:22:46;96678.84;;;14.66;72.05
37892;BME280;45797;47.466;9.486;2022-10-28T06:27:58;96680.06;;;14.73;72.05
37892;BME280;45797;47.466;9.486;2022-10-28T06:32:59;96690.19;;;14.79;71.96
37892;BME280;45797;47.466;9.486;2022-10-28T06:38:00;96688.13;;;14.83;72.01
37892;BME280;45797;47.466;9.486;2022-10-28T06:43:06;96714.78;;;14.91;72.14
37892;BME280;45797;47.466;9.486;2022-10-28T06:48:10;96718.66;;;14.98;71.93
37892;BME280;45797;47.466;9.486;2022-10-28T06:53:10;96707.50;;;15.06;72.14
37892;BME280;45797;47.466;9.486;2022-10-28T06:58:11;96705.38;;;15.11;72.33
37892;BME280;45797;47.466;9.486;2022-10-28T07:03:26;96709.97;;;15.20;71.65
37892;BME280;45797;47.466;9.486;2022-10-28T07:08:27;96729.31;;;15.32;71.80
37892;BME280;45797;47.466;9.486;2022-10-28T07:13:28;96741.19;;;15.26;71.75
37892;BME280;45797;47.466;9.486;2022-10-28T07:18:29;96747.66;;;15.33;72.57
37892;BME280;45797;47.466;9.486;2022-10-28T07:23:29;96740.03;;;15.53;71.88
37892;BME280;45797;47.466;9.486;2022-10-28T07:28:33;96731.94;;;15.67;71.78
37892;BME280;45797;47.466;9.486;2022-10-28T07:33:33;96735.06;;;15.83;71.27
37892;BME280;45797;47.466;9.486;2022-10-28T07:38:36;96740.56;;;15.91;71.56
37892;BME280;45797;47.466;9.486;2022-10-28T07:43:37;96753.91;;;16.01;71.39
37892;BME280;45797;47.466;9.486;2022-10-28T07:48:39;96746.25;;;16.20;71.14
37892;BME280;45797;47.466;9.486;2022-10-28T07:53:40;96741.66;;;16.34;70.66
37892;BME280;45797;47.466;9.486;2022-10-28T07:58:41;96746.78;;;16.46;70.65
37892;BME280;45797;47.466;9.486;2022-10-28T08:03:43;96747.28;;;16.51;70.76
37892;BME280;45797;47.466;9.486;2022-10-28T08:09:10;96742.94;;;16.62;70.56
37892;BME280;45797;47.466;9.486;2022-10-28T08:14:11;96734.50;;;16.68;71.00
37892;BME280;45797;47.466;9.486;2022-10-28T08:19:11;96732.59;;;16.70;70.79
37892;BME280;45797;47.466;9.486;2022-10-28T08:24:13;96734.50;;;16.79;70.88
37892;BME280;45797;47.466;9.486;2022-10-28T08:29:28;96727.25;;;16.81;70.91
37892;BME280;45797;47.466;9.486;2022-10-28T08:34:28;96692.22;;;16.89;70.95
37892;BME280;45797;47.466;9.486;2022-10-28T08:39:29;96712.25;;;17.02;71.01
37892;BME280;45797;47.466;9.486;2022-10-28T08:45:02;96723.25;;;17.19;70.65
37892;BME280;45797;47.466;9.486;2022-10-28T08:50:17;96711.28;;;17.24;70.38
37892;BME280;45797;47.466;9.486;2022-10-28T08:55:23;96726.69;;;17.30;70.24
37892;BME280;45797;47.466;9.486;2022-10-28T09:00:43;96747.84;;;17.09;70.93
37892;BME280;45797;47.466;9.486;2022-10-28T09:05:52;96760.47;;;17.17;70.91
37892;BME280;45797;47.466;9.486;2022-10-28T09:16:11;96762.09;;;17.50;70.02
37892;BME280;45797;47.466;9.486;2022-10-28T09:21:32;96740.66;;;17.53;69.79
37892;BME280;45797;47.466;9.486;2022-10-28T09:26:58;96738.00;;;17.53;70.00
37892;BME280;45797;47.466;9.486;2022-10-28T09:32:21;96736.69;;;17.68;69.81
37892;BME280;45797;47.466;9.486;2022-10-28T09:37:31;96757.00;;;17.79;69.67
37892;BME280;45797;47.466;9.486;2022-10-28T09:43:22;96768.56;;;17.78;69.73
37892;BME280;45797;47.466;9.486;2022-10-28T09:48:54;96764.13;;;18.09;68.77
37892;BME280;45797;47.466;9.486;2022-10-28T09:54:02;96766.94;;;18.17;68.75
37892;BME280;45797;47.466;9.486;2022-10-28T09:59:04;96764.28;;;18.48;68.42
37892;BME280;45797;47.466;9.486;2022-10-28T10:04:26;96754.59;;;18.68;68.06
37892;BME280;45797;47.466;9.486;2022-10-28T10:09:38;96745.13;;;19.04;66.97
37892;BME280;45797;47.466;9.486;2022-10-28T10:14:46;96737.28;;;19.22;66.74
37892;BME280;45797;47.466;9.486;2022-10-28T10:20:05;96732.25;;;19.28;67.13
37892;BME280;45797;47.466;9.486;2022-10-28T10:25:26;96729.03;;;19.44;66.67
37892;BME280;45797;47.466;9.486;2022-10-28T10:30:35;96726.78;;;19.59;66.62
37892;BME280;45797;47.466;9.486;2022-10-28T10:35:37;96734.91;;;19.67;66.62
37892;BME280;45797;47.466;9.486;2022-10-28T10:40:58;96732.94;;;19.69;66.70
37892;BME280;45797;47.466;9.486;2022-10-28T10:46:04;96728.75;;;19.57;66.78
37892;BME280;45797;47.466;9.486;2022-10-28T10:51:16;96740.91;;;19.50;67.32
37892;BME280;45797;47.466;9.486;2022-10-28T10:56:31;96732.25;;;19.57;66.87
37892;BME280;45797;47.466;9.486;2022-10-28T11:01:37;96735.88;;;19.66;66.48
37892;BME280;45797;47.466;9.486;2022-10-28T11:06:52;96747.06;;;19.50;66.75
37892;BME280;45797;47.466;9.486;2022-10-28T11:12:01;96728.34;;;19.71;66.66
37892;BME280;45797;47.466;9.486;2022-10-28T11:17:22;96724.69;;;19.72;66.38
37892;BME280;45797;47.466;9.486;2022-10-28T11:22:42;96722.88;;;19.73;66.43
37892;BME280;45797;47.466;9.486;2022-10-28T11:43:55;96706.91;;;20.65;64.65
37892;BME280;45797;47.466;9.486;2022-10-28T12:00:22;96693.38;;;21.11;63.72
37892;BME280;45797;47.466;9.486;2022-10-28T12:05:31;96687.69;;;21.42;63.26
37892;BME280;45797;47.466;9.486;2022-10-28T12:21:40;96680.28;;;22.14;61.81
37892;BME280;45797;47.466;9.486;2022-10-28T12:26:48;96678.81;;;22.19;61.68
37892;BME280;45797;47.466;9.486;2022-10-28T12:32:08;96660.16;;;22.36;61.77
37892;BME280;45797;47.466;9.486;2022-10-28T12:37:23;96645.41;;;22.66;60.68
37892;BME280;45797;47.466;9.486;2022-10-28T12:42:58;96638.56;;;22.71;60.74
37892;BME280;45797;47.466;9.486;2022-10-28T12:48:30;96616.34;;;22.79;60.31
37892;BME280;45797;47.466;9.486;2022-10-28T12:59:49;96606.69;;;23.02;59.92
37892;BME280;45797;47.466;9.486;2022-10-28T13:04:42;96612.22;;;22.93;60.41
37892;BME280;45797;47.466;9.486;2022-10-28T13:09:49;96625.69;;;22.59;60.50
37892;BME280;45797;47.466;9.486;2022-10-28T13:15:02;96634.56;;;22.17;61.62
37892;BME280;45797;47.466;9.486;2022-10-28T13:20:45;96620.63;;;21.89;62.19
37892;BME280;45797;47.466;9.486;2022-10-28T13:31:06;96625.03;;;21.72;62.20
37892;BME280;45797;47.466;9.486;2022-10-28T13:36:24;96629.47;;;21.63;62.20
37892;BME280;45797;47.466;9.486;2022-10-28T13:41:34;96633.09;;;21.54;61.92
37892;BME280;45797;47.466;9.486;2022-10-28T13:57:22;96619.81;;;21.62;61.08
37892;BME280;45797;47.466;9.486;2022-10-28T14:07:42;96642.16;;;21.61;61.16
37892;BME280;45797;47.466;9.486;2022-10-28T14:13:00;96629.72;;;21.78;60.65
37892;BME280;45797;47.466;9.486;2022-10-28T14:33:29;96625.63;;;21.92;60.82
37892;BME280;45797;47.466;9.486;2022-10-28T14:38:50;96647.66;;;21.68;60.86
37892;BME280;45797;47.466;9.486;2022-10-28T14:44:01;96655.16;;;21.64;61.31
37892;BME280;45797;47.466;9.486;2022-10-28T14:49:32;96654.16;;;21.65;60.94
37892;BME280;45797;47.466;9.486;2022-10-28T14:54:56;96637.09;;;21.84;60.90
37892;BME280;45797;47.466;9.486;2022-10-28T15:00:05;96616.09;;;22.23;60.11
37892;BME280;45797;47.466;9.486;2022-10-28T15:05:16;96625.84;;;22.57;59.74
37892;BME280;45797;47.466;9.486;2022-10-28T15:10:30;96630.09;;;22.84;58.87
37892;BME280;45797;47.466;9.486;2022-10-28T15:15:51;96621.91;;;23.02;58.88
37892;BME280;45797;47.466;9.486;2022-10-28T15:21:12;96615.22;;;23.14;58.99
37892;BME280;45797;47.466;9.486;2022-10-28T15:26:23;96614.88;;;23.17;58.67
37892;BME280;45797;47.466;9.486;2022-10-28T15:31:24;96606.56;;;23.12;58.37
37892;BME280;45797;47.466;9.486;2022-10-28T15:36:25;96603.34;;;23.00;58.69
37892;BME280;45797;47.466;9.486;2022-10-28T15:46:30;96615.81;;;22.43;60.03
37892;BME280;45797;47.466;9.486;2022-10-28T15:51:39;96629.50;;;22.06;60.38
37892;BME280;45797;47.466;9.486;2022-10-28T15:56:55;96627.50;;;21.65;61.00
37892;BME280;45797;47.466;9.486;2022-10-28T16:01:55;96635.97;;;21.35;61.36
37892;BME280;45797;47.466;9.486;2022-10-28T16:07:28;96630.00;;;20.97;61.83
37892;BME280;45797;47.466;9.486;2022-10-28T16:12:29;96643.00;;;20.65;62.07
37892;BME280;45797;47.466;9.486;2022-10-28T16:17:30;96644.00;;;20.36;62.69
37892;BME280;45797;47.466;9.486;2022-10-28T16:22:51;96653.47;;;20.03;63.09
37892;BME280;45797;47.466;9.486;2022-10-28T16:27:53;96646.41;;;19.84;63.20
37892;BME280;45797;47.466;9.486;2022-10-28T16:33:03;96640.47;;;19.63;63.39
37892;BME280;45797;47.466;9.486;2022-10-28T16:38:10;96647.19;;;19.48;63.12
37892;BME280;45797;47.466;9.486;2022-10-28T16:43:18;96639.69;;;19.33;63.25
37892;BME280;45797;47.466;9.486;2022-10-28T16:48:22;96636.06;;;19.25;63.12
37892;BME280;45797;47.466;9.486;2022-10-28T16:53:23;96632.59;;;19.15;63.43
37892;BME280;45797;47.466;9.486;2022-10-28T16:58:25;96632.31;;;19.08;63.12
37892;BME280;45797;47.466;9.486;2022-10-28T17:03:36;96621.56;;;19.00;62.94
37892;BME280;45797;47.466;9.486;2022-10-28T17:08:55;96613.91;;;18.97;62.78
37892;BME280;45797;47.466;9.486;2022-10-28T17:13:55;96606.91;;;18.96;62.98
37892;BME280;45797;47.466;9.486;2022-10-28T17:18:57;96611.38;;;18.95;62.73
37892;BME280;45797;47.466;9.486;2022-10-28T17:23:57;96621.28;;;18.93;62.74
37892;BME280;45797;47.466;9.486;2022-10-28T17:28:58;96630.38;;;18.91;62.44
37892;BME280;45797;47.466;9.486;2022-10-28T17:34:00;96621.03;;;18.87;62.41
37892;BME280;45797;47.466;9.486;2022-10-28T17:38:59;96628.03;;;18.78;62.30
37892;BME280;45797;47.466;9.486;2022-10-28T17:43:59;96635.00;;;18.69;62.27
37892;BME280;45797;47.466;9.486;2022-10-28T17:49:03;96634.31;;;18.67;62.86
37892;BME280;45797;47.466;9.486;2022-10-28T17:54:08;96634.00;;;18.61;62.74
37892;BME280;45797;47.466;9.486;2022-10-28T17:59:08;96641.53;;;18.55;62.53
37892;BME280;45797;47.466;9.486;2022-10-28T18:04:09;96647.25;;;18.51;62.87
37892;BME280;45797;47.466;9.486;2022-10-28T18:09:21;96647.25;;;18.41;62.40
37892;BME280;45797;47.466;9.486;2022-10-28T18:14:23;96659.09;;;18.37;62.71
37892;BME280;45797;47.466;9.486;2022-10-28T18:19:25;96656.88;;;18.33;62.48
37892;BME280;45797;47.466;9.486;2022-10-28T18:24:27;96663.41;;;18.28;62.79
37892;BME280;45797;47.466;9.486;2022-10-28T18:29:28;96668.69;;;18.19;62.79
37892;BME280;45797;47.466;9.486;2022-10-28T18:34:35;96656.50;;;18.07;63.31
37892;BME280;45797;47.466;9.486;2022-10-28T18:39:35;96660.38;;;17.93;63.26
37892;BME280;45797;47.466;9.486;2022-10-28T18:44:35;96657.56;;;17.85;63.17
37892;BME280;45797;47.466;9.486;2022-10-28T18:49:41;96657.94;;;17.80;63.15
37892;BME280;45797;47.466;9.486;2022-10-28T18:54:45;96652.09;;;17.77;63.19
37892;BME280;45797;47.466;9.486;2022-10-28T18:59:53;96657.38;;;17.77;62.83
37892;BME280;45797;47.466;9.486;2022-10-28T19:04:54;96653.34;;;17.73;62.85
37892;BME280;45797;47.466;9.486;2022-10-28T19:09:59;96645.38;;;17.73;62.92
37892;BME280;45797;47.466;9.486;2022-10-28T19:14:58;96655.16;;;17.72;62.49
37892;BME280;45797;47.466;9.486;2022-10-28T19:19:58;96657.91;;;17.70;62.74
37892;BME280;45797;47.466;9.486;2022-10-28T19:24:59;96659.59;;;17.72;62.78
37892;BME280;45797;47.466;9.486;2022-10-28T19:30:00;96663.22;;;17.70;62.89
37892;BME280;45797;47.466;9.486;2022-10-28T19:35:01;96670.84;;;17.64;62.88
37892;BME280;45797;47.466;9.486;2022-10-28T19:40:01;96678.28;;;17.49;63.70
37892;BME280;45797;47.466;9.486;2022-10-28T19:45:04;96675.44;;;17.41;63.32
37892;BME280;45797;47.466;9.486;2022-10-28T19:50:04;96681.38;;;17.33;64.10
37892;BME280;45797;47.466;9.486;2022-10-28T19:55:04;96680.38;;;17.25;63.98
37892;BME280;45797;47.466;9.486;2022-10-28T20:00:06;96683.28;;;17.22;64.21
37892;BME280;45797;47.466;9.486;2022-10-28T20:05:11;96676.81;;;17.14;64.31
37892;BME280;45797;47.466;9.486;2022-10-28T20:10:11;96682.88;;;17.05;64.72
37892;BME280;45797;47.466;9.486;2022-10-28T20:15:22;96694.47;;;16.93;64.41
37892;BME280;45797;47.466;9.486;2022-10-28T20:20:24;96696.69;;;16.88;64.93
37892;BME280;45797;47.466;9.486;2022-10-28T20:25:35;96691.19;;;16.80;64.83
37892;BME280;45797;47.466;9.486;2022-10-28T20:30:35;96680.72;;;16.78;64.20
37892;BME280;45797;47.466;9.486;2022-10-28T20:35:35;96690.72;;;16.75;64.80
37892;BME280;45797;47.466;9.486;2022-10-28T20:40:35;96697.47;;;16.68;64.95
37892;BME280;45797;47.466;9.486;2022-10-28T20:46:03;96707.09;;;16.57;65.02
37892;BME280;45797;47.466;9.486;2022-10-28T20:51:05;96707.81;;;16.60;65.08
37892;BME280;45797;47.466;9.486;2022-10-28T20:56:10;96699.16;;;16.57;64.80
37892;BME280;45797;47.466;9.486;2022-10-28T21:01:25;96691.47;;;16.54;65.11
37892;BME280;45797;47.466;9.486;2022-10-28T21:06:38;96694.97;;;16.55;65.04
37892;BME280;45797;47.466;9.486;2022-10-28T21:11:38;96697.72;;;16.53;65.23
37892;BME280;45797;47.466;9.486;2022-10-28T21:16:50;96694.38;;;16.51;64.75
37892;BME280;45797;47.466;9.486;2022-10-28T21:22:01;96702.66;;;16.47;65.08
37892;BME280;45797;47.466;9.486;2022-10-28T21:27:03;96700.75;;;16.49;64.97
37892;BME280;45797;47.466;9.486;2022-10-28T21:32:02;96690.53;;;16.44;65.38
37892;BME280;45797;47.466;9.486;2022-10-28T21:37:12;96706.66;;;16.41;65.09
37892;BME280;45797;47.466;9.486;2022-10-28T21:42:18;96714.25;;;16.35;65.34
37892;BME280;45797;47.466;9.486;2022-10-28T21:47:19;96705.81;;;16.29;65.45
37892;BME280;45797;47.466;9.486;2022-10-28T21:52:26;96693.69;;;16.27;65.51
37892;BME280;45797;47.466;9.486;2022-10-28T21:57:28;96699.25;;;16.24;65.39
37892;BME280;45797;47.466;9.486;2022-10-28T22:02:34;96697.78;;;16.20;65.54
37892;BME280;45797;47.466;9.486;2022-10-28T22:07:47;96681.47;;;16.15;65.49
37892;BME280;45797;47.466;9.486;2022-10-28T22:12:48;96679.53;;;16.17;65.43
37892;BME280;45797;47.466;9.486;2022-10-28T22:17:48;96679.53;;;16.17;65.89
37892;BME280;45797;47.466;9.486;2022-10-28T22:22:47;96671.88;;;16.14;65.98
37892;BME280;45797;47.466;9.486;2022-10-28T22:28:03;96667.78;;;16.10;65.55
37892;BME280;45797;47.466;9.486;2022-10-28T22:33:03;96668.03;;;16.07;66.07
37892;BME280;45797;47.466;9.486;2022-10-28T22:38:07;96675.25;;;16.05;66.07
37892;BME280;45797;47.466;9.486;2022-10-28T22:43:07;96680.78;;;16.02;66.07
37892;BME280;45797;47.466;9.486;2022-10-28T22:48:08;96692.06;;;16.04;66.20
37892;BME280;45797;47.466;9.486;2022-10-28T22:53:18;96687.97;;;15.99;66.10
37892;BME280;45797;47.466;9.486;2022-10-28T22:58:25;96691.56;;;15.98;66.65
37892;BME280;45797;47.466;9.486;2022-10-28T23:03:25;96699.88;;;15.94;66.25
37892;BME280;45797;47.466;9.486;2022-10-28T23:08:26;96701.31;;;15.87;66.53
37892;BME280;45797;47.466;9.486;2022-10-28T23:13:28;96695.19;;;15.86;66.83
37892;BME280;45797;47.466;9.486;2022-10-28T23:18:28;96699.16;;;15.81;67.05
37892;BME280;45797;47.466;9.486;2022-10-28T23:23:27;96689.91;;;15.75;67.58
37892;BME280;45797;47.466;9.486;2022-10-28T23:28:28;96665.44;;;15.73;67.48
37892;BME280;45797;47.466;9.486;2022-10-28T23:33:31;96667.09;;;15.74;67.67
37892;BME280;45797;47.466;9.486;2022-10-28T23:38:33;96675.13;;;15.73;68.02
37892;BME280;45797;47.466;9.486;2022-10-28T23:43:35;96692.78;;;15.72;67.92
37892;BME280;45797;47.466;9.486;2022-10-28T23:48:36;96709.97;;;15.66;67.91
37892;BME280;45797;47.466;9.486;2022-10-28T23:53:36;96718.72;;;15.67;68.52
37892;BME280;45797;47.466;9.486;2022-10-28T23:58:36;96695.19;;;15.64;68.24
